createdAt,value
2023-04-05T00:00:23.552Z,59.83
2023-04-05T00:05:31.108Z,59.90
2023-04-05T00:10:32.652Z,60.05
2023-04-05T00:15:34.225Z,60.25
2023-04-05T00:20:37.462Z,59.64
2023-04-05T00:25:38.869Z,59.64
2023-04-05T00:30:40.709Z,59.93
2023-04-05T00:35:42.326Z,59.77
2023-04-05T00:40:43.960Z,59.75
2023-04-05T00:45:46.376Z,59.82
2023-04-05T00:50:50.038Z,60.18
2023-04-05T00:55:54.086Z,60.00
2023-04-05T01:01:18.584Z,59.85
2023-04-05T01:06:42.182Z,60.21
2023-04-05T01:11:47.271Z,60.93
2023-04-05T01:16:49.890Z,60.69
2023-04-05T01:22:14.116Z,60.87
2023-04-05T01:27:36.409Z,61.40
2023-04-05T01:32:54.227Z,61.78
2023-04-05T01:38:00.890Z,61.77
2023-04-05T01:43:03.230Z,61.30
2023-04-05T01:48:04.841Z,61.54
2023-04-05T01:53:09.292Z,61.46
2023-04-05T01:58:10.830Z,61.44
2023-04-05T02:03:12.404Z,61.64
2023-04-05T02:08:14.366Z,61.07
2023-04-05T02:13:16.042Z,61.25
2023-04-05T02:18:22.434Z,61.96
2023-04-05T02:23:24.051Z,61.65
2023-04-05T02:28:26.049Z,61.75
2023-04-05T02:33:27.888Z,62.20
2023-04-05T02:38:29.706Z,62.31
2023-04-05T02:43:31.157Z,62.63
2023-04-05T02:48:32.853Z,62.83
2023-04-05T02:53:35.352Z,63.05
2023-04-05T02:58:36.784Z,63.43
2023-04-05T03:03:40.258Z,63.43
2023-04-05T03:08:48.584Z,63.61
2023-04-05T03:13:50.186Z,64.01
2023-04-05T03:18:51.600Z,63.71
2023-04-05T03:23:53.038Z,64.23
2023-04-05T03:28:54.480Z,64.12
2023-04-05T03:33:56.063Z,64.15
2023-04-05T03:38:57.536Z,64.33
2023-04-05T03:43:59.261Z,64.65
2023-04-05T03:49:01.390Z,64.08
2023-04-05T03:54:02.866Z,64.69
2023-04-05T03:59:04.335Z,64.59
2023-04-05T04:04:05.842Z,64.56
2023-04-05T04:09:07.294Z,65.35
2023-04-05T04:14:08.713Z,65.39
2023-04-05T04:19:10.209Z,65.30
2023-04-05T04:24:18.629Z,65.55
2023-04-05T04:29:20.206Z,65.72
2023-04-05T04:34:21.666Z,65.92
2023-04-05T04:39:26.797Z,66.18
2023-04-05T04:44:28.307Z,66.11
2023-04-05T04:49:33.086Z,66.74
2023-04-05T04:54:36.055Z,67.31
2023-04-05T04:59:37.602Z,66.78
2023-04-05T05:04:41.483Z,67.06
2023-04-05T05:09:43.375Z,67.28
2023-04-05T05:14:44.786Z,68.11
2023-04-05T05:19:46.246Z,67.08
2023-04-05T05:24:48.134Z,67.11
2023-04-05T05:29:49.646Z,66.82
2023-04-05T05:34:51.105Z,66.57
2023-04-05T05:39:52.565Z,65.91
2023-04-05T05:44:54.105Z,66.06
2023-04-05T05:49:56.206Z,65.48
2023-04-05T05:54:57.620Z,65.62
2023-04-05T05:59:59.025Z,65.24
2023-04-05T06:05:02.192Z,65.18
2023-04-05T06:10:07.839Z,64.12
2023-04-05T06:15:09.734Z,64.00
2023-04-05T06:20:11.834Z,64.54
2023-04-05T06:25:13.444Z,63.83
2023-04-05T06:30:15.027Z,63.57
2023-04-05T06:35:16.556Z,63.49
2023-04-05T06:40:18.333Z,62.85
2023-04-05T06:45:19.885Z,62.19
2023-04-05T06:50:21.429Z,62.55
2023-04-05T06:55:22.911Z,62.17
2023-04-05T07:00:24.404Z,61.54
2023-04-05T07:05:26.060Z,61.80
2023-04-05T07:10:27.528Z,61.08
2023-04-05T07:15:28.982Z,59.10
2023-04-05T07:20:30.436Z,59.77
2023-04-05T07:25:32.306Z,59.97
2023-04-05T07:30:33.730Z,60.00
2023-04-05T07:35:35.321Z,59.06
2023-04-05T07:40:37.029Z,57.46
2023-04-05T07:45:38.480Z,58.34
2023-04-05T07:50:41.216Z,56.27
2023-04-05T07:55:43.145Z,57.24
2023-04-05T08:00:44.579Z,57.13
2023-04-05T08:05:46.035Z,59.28
2023-04-05T08:10:47.482Z,58.71
2023-04-05T08:15:48.969Z,58.91
2023-04-05T08:20:57.209Z,60.20
2023-04-05T08:25:58.665Z,60.76
2023-04-05T08:31:00.369Z,61.09
2023-04-05T08:36:06.233Z,61.32
2023-04-05T08:41:19.044Z,61.04
2023-04-05T08:46:22.064Z,60.22
2023-04-05T08:51:25.872Z,60.01
2023-04-05T08:56:32.217Z,59.21
2023-04-05T09:01:37.048Z,58.67
2023-04-05T09:06:39.140Z,57.35
2023-04-05T09:11:40.968Z,56.88
2023-04-05T09:16:42.788Z,55.99
2023-04-05T09:22:02.144Z,54.84
2023-04-05T09:27:13.341Z,54.50
2023-04-05T09:32:18.166Z,52.11
2023-04-05T09:37:20.921Z,53.98
2023-04-05T09:42:26.069Z,53.68
2023-04-05T09:47:32.470Z,53.75
2023-04-05T09:52:34.152Z,52.94
2023-04-05T09:57:37.739Z,51.67
2023-04-05T10:02:39.953Z,52.51
2023-04-05T10:07:42.993Z,52.29
2023-04-05T10:12:46.718Z,51.88
2023-04-05T10:18:06.524Z,51.54
2023-04-05T10:23:12.685Z,52.11
2023-04-05T10:28:36.274Z,51.05
2023-04-05T10:33:46.424Z,52.97
2023-04-05T10:39:04.194Z,52.77
2023-04-05T10:44:18.835Z,52.62
2023-04-05T10:49:37.663Z,52.93
2023-04-05T10:54:40.282Z,51.47
2023-04-05T10:59:45.138Z,54.51
2023-04-05T11:04:46.966Z,52.90
2023-04-05T11:09:57.559Z,52.76
2023-04-05T11:15:36.597Z,53.16
2023-04-05T11:20:44.038Z,53.87
2023-04-05T11:25:54.169Z,53.79
2023-04-05T11:30:57.316Z,52.50
2023-04-05T11:36:03.124Z,52.92
2023-04-05T11:41:17.862Z,52.25
2023-04-05T11:46:21.317Z,52.62
2023-04-05T11:51:24.466Z,53.11
2023-04-05T11:56:26.111Z,54.32
2023-04-05T12:01:27.575Z,55.27
2023-04-05T12:06:29.009Z,55.16
2023-04-05T12:11:33.329Z,55.82
2023-04-05T12:16:34.766Z,56.11
2023-04-05T12:21:36.837Z,54.77
2023-04-05T12:26:38.700Z,54.34
2023-04-05T12:31:45.193Z,54.30
2023-04-05T12:36:46.784Z,54.50
2023-04-05T12:41:59.505Z,57.37
2023-04-05T12:47:09.198Z,58.27
2023-04-05T12:52:11.580Z,58.81
2023-04-05T12:57:14.275Z,58.69
2023-04-05T13:02:15.778Z,59.54
2023-04-05T13:07:17.298Z,59.07
2023-04-05T13:12:18.910Z,59.18
2023-04-05T13:17:21.363Z,58.97
2023-04-05T13:22:22.808Z,58.24
2023-04-05T13:27:24.256Z,57.84
2023-04-05T13:32:25.891Z,59.48
2023-04-05T13:37:27.428Z,64.71
2023-04-05T13:42:28.898Z,64.82
2023-04-05T13:47:30.397Z,67.38
2023-04-05T13:52:31.844Z,68.00
2023-04-05T13:57:33.292Z,66.94
2023-04-05T14:02:34.959Z,66.85
2023-04-05T14:07:36.954Z,67.04
2023-04-05T14:12:39.277Z,66.64
2023-04-05T14:17:40.890Z,65.94
2023-04-05T14:22:42.382Z,66.08
2023-04-05T14:27:43.849Z,65.29
2023-04-05T14:32:45.341Z,66.22
2023-04-05T14:37:46.806Z,65.71
2023-04-05T14:42:50.218Z,65.06
2023-04-05T14:47:51.994Z,63.96
2023-04-05T14:52:53.960Z,63.80
2023-04-05T14:57:55.411Z,63.41
2023-04-05T15:02:56.985Z,62.95
2023-04-05T15:07:58.509Z,62.67
2023-04-05T15:13:00.344Z,60.08
2023-04-05T15:18:02.521Z,60.23
2023-04-05T15:23:04.022Z,60.10
2023-04-05T15:28:06.995Z,60.19
2023-04-05T15:33:08.631Z,61.00
2023-04-05T15:38:10.217Z,62.07
2023-04-05T15:43:11.686Z,62.18
2023-04-05T15:48:13.878Z,63.08
2023-04-05T15:53:15.611Z,62.58
2023-04-05T15:58:17.062Z,62.84
2023-04-05T16:03:18.628Z,62.92
2023-04-05T16:08:20.087Z,63.04
2023-04-05T16:13:21.683Z,63.37
2023-04-05T16:18:24.324Z,62.84
2023-04-05T16:23:25.885Z,62.91
2023-04-05T16:28:27.332Z,63.99
2023-04-05T16:33:28.732Z,64.36
2023-04-05T16:38:30.184Z,64.91
2023-04-05T16:43:31.634Z,65.48
2023-04-05T16:48:33.075Z,64.75
2023-04-05T16:53:34.524Z,65.00
2023-04-05T16:58:36.003Z,64.63
2023-04-05T17:03:37.688Z,64.62
2023-04-05T17:08:39.148Z,64.93
2023-04-05T17:13:41.899Z,65.06
2023-04-05T17:18:43.356Z,65.14
2023-04-05T17:23:44.821Z,64.88
2023-04-05T17:28:46.604Z,65.58
2023-04-05T17:33:48.895Z,65.60
2023-04-05T17:38:50.712Z,65.60
2023-04-05T17:43:52.180Z,65.46
2023-04-05T17:48:54.157Z,65.86
2023-04-05T17:53:57.433Z,66.04
2023-04-05T17:58:58.878Z,66.62
2023-04-05T18:04:01.197Z,67.28
2023-04-05T18:09:03.668Z,67.43
2023-04-05T18:14:05.515Z,67.44
2023-04-05T18:19:07.416Z,67.80
2023-04-05T18:24:10.613Z,68.28
2023-04-05T18:29:12.287Z,68.41
2023-04-05T18:34:13.757Z,69.06
2023-04-05T18:39:15.713Z,69.82
2023-04-05T18:44:17.168Z,70.30
2023-04-05T18:49:19.201Z,71.01
2023-04-05T18:54:20.807Z,70.99
2023-04-05T18:59:22.643Z,71.54
2023-04-05T19:04:24.126Z,72.30
2023-04-05T19:09:26.542Z,71.84
2023-04-05T19:14:28.048Z,72.39
2023-04-05T19:19:29.448Z,72.60
2023-04-05T19:24:30.850Z,73.24
2023-04-05T19:29:34.572Z,72.98
2023-04-05T19:34:37.981Z,73.55
2023-04-05T19:39:39.558Z,74.26
2023-04-05T19:44:49.598Z,73.71
2023-04-05T19:49:52.630Z,74.60
2023-04-05T19:54:54.463Z,74.61
2023-04-05T19:59:55.963Z,74.59
2023-04-05T20:04:57.385Z,74.51
2023-04-05T20:09:58.827Z,74.51
2023-04-05T20:15:00.275Z,75.81
2023-04-05T20:20:01.811Z,75.20
2023-04-05T20:25:31.555Z,75.94
2023-04-05T20:30:33.051Z,75.91
2023-04-05T20:35:36.191Z,75.46
2023-04-05T20:40:37.642Z,76.02
2023-04-05T20:45:39.068Z,76.55
2023-04-05T20:50:40.931Z,76.98
2023-04-05T20:55:42.429Z,76.75
2023-04-05T21:00:43.903Z,76.85
2023-04-05T21:05:45.455Z,77.67
2023-04-05T21:10:46.969Z,77.86
2023-04-05T21:15:49.034Z,77.85
2023-04-05T21:20:52.126Z,77.99
2023-04-05T21:25:57.452Z,78.85
2023-04-05T21:30:58.971Z,78.29
2023-04-05T21:36:00.587Z,78.30
2023-04-05T21:41:02.081Z,78.23
2023-04-05T21:46:03.492Z,79.09
2023-04-05T21:51:04.923Z,78.70
2023-04-05T21:56:06.427Z,78.44
2023-04-05T22:01:07.887Z,77.83
2023-04-05T22:06:09.309Z,77.97
2023-04-05T22:11:10.731Z,77.79
2023-04-05T22:16:12.509Z,78.15
2023-04-05T22:21:13.972Z,77.74
2023-04-05T22:26:15.373Z,78.00
2023-04-05T22:31:17.246Z,77.67
2023-04-05T22:36:18.674Z,77.15
2023-04-05T22:41:20.136Z,77.50
2023-04-05T22:46:21.669Z,77.57
2023-04-05T22:51:23.186Z,77.73
2023-04-05T22:56:24.671Z,77.62
2023-04-05T23:01:26.582Z,77.80
2023-04-05T23:06:28.055Z,77.54
2023-04-05T23:11:29.471Z,77.60
2023-04-05T23:16:30.903Z,77.11
2023-04-05T23:21:32.392Z,77.21
2023-04-05T23:26:34.468Z,77.13
2023-04-05T23:31:35.919Z,77.11
2023-04-05T23:36:37.657Z,77.43
2023-04-05T23:41:39.350Z,77.20
2023-04-05T23:46:40.902Z,77.15
2023-04-05T23:51:42.896Z,77.32
2023-04-05T23:56:44.683Z,77.33
